createdAt,value
2017-09-19T00:06:18.901Z,44.9
2017-09-19T00:17:19.083Z,45.2
2017-09-19T00:28:19.136Z,45.5
2017-09-19T00:39:20.147Z,46.4
2017-09-19T00:50:19.470Z,46.7
2017-09-19T01:01:19.429Z,46.8
2017-09-19T01:12:19.212Z,47.3
2017-09-19T01:23:18.533Z,47.7
2017-09-19T01:34:20.564Z,47.8
2017-09-19T01:45:19.033Z,48
2017-09-19T01:56:19.615Z,48.4
2017-09-19T02:07:18.651Z,48.3
2017-09-19T02:18:19.435Z,48.5
2017-09-19T02:29:20.157Z,48.8
2017-09-19T02:40:18.765Z,48.9
2017-09-19T02:51:19.567Z,49.3
2017-09-19T03:02:18.641Z,49.3
2017-09-19T03:13:19.761Z,48.9
2017-09-19T03:24:21.067Z,49.5
2017-09-19T03:35:19.594Z,49.1
2017-09-19T03:46:18.922Z,49.3
2017-09-19T03:57:18.623Z,49.2
2017-09-19T04:08:19.016Z,49.7
2017-09-19T04:19:20.289Z,48.9
2017-09-19T04:30:19.744Z,49.1
2017-09-19T04:41:18.813Z,49.1
2017-09-19T04:52:19.189Z,47.5
2017-09-19T05:03:19.025Z,45.5
2017-09-19T05:14:20.918Z,44.8
2017-09-19T05:25:18.559Z,44.1
2017-09-19T05:36:18.930Z,43.1
2017-09-19T05:47:19.067Z,42.4
2017-09-19T05:58:18.714Z,44.4
2017-09-19T06:09:19.848Z,46.1
2017-09-19T06:20:19.468Z,46.4
2017-09-19T06:31:19.318Z,46.6
2017-09-19T06:42:18.808Z,47.2
2017-09-19T06:53:20.084Z,47.4
2017-09-19T07:04:20.406Z,47.9
2017-09-19T07:15:18.259Z,48.3
2017-09-19T07:26:19.747Z,48.8
2017-09-19T07:37:19.174Z,49.3
2017-09-19T07:48:18.846Z,49.7
2017-09-19T07:59:19.860Z,49.4
2017-09-19T08:10:19.780Z,50.1
2017-09-19T08:21:19.615Z,50.1
2017-09-19T08:32:18.890Z,50.7
2017-09-19T08:43:18.750Z,51.1
2017-09-19T08:54:19.760Z,51.2
2017-09-19T09:05:19.265Z,51.5
2017-09-19T09:16:19.114Z,51.5
2017-09-19T09:27:19.883Z,51.6
2017-09-19T09:38:19.291Z,48.4
2017-09-19T09:49:19.928Z,47.5
2017-09-19T10:00:19.136Z,46.3
2017-09-19T10:11:18.813Z,45.8
2017-09-19T10:22:18.889Z,44.9
2017-09-19T10:33:19.386Z,43.9
2017-09-19T10:44:19.609Z,46.8
2017-09-19T10:55:18.785Z,48.6
2017-09-19T11:06:19.412Z,48.2
2017-09-19T11:17:18.938Z,47.8
2017-09-19T11:28:19.221Z,49.2
2017-09-19T11:39:19.796Z,49.2
2017-09-19T11:50:19.118Z,49.1
2017-09-19T12:01:18.815Z,49.9
2017-09-19T12:12:19.383Z,50
2017-09-19T12:23:19.306Z,50.2
2017-09-19T12:34:20.631Z,50.3
2017-09-19T12:45:18.519Z,51
2017-09-19T12:56:19.060Z,51.1
2017-09-19T13:07:19.615Z,50.7
2017-09-19T13:18:19.208Z,51.2
2017-09-19T13:29:20.305Z,51.3
2017-09-19T13:40:19.454Z,51.3
2017-09-19T13:51:19.159Z,51.3
2017-09-19T14:02:19.808Z,51.8
2017-09-19T14:13:18.659Z,51.5
2017-09-19T14:24:18.770Z,51.6
2017-09-19T14:35:19.232Z,51.5
2017-09-19T14:46:18.780Z,50.4
2017-09-19T14:57:18.913Z,47.9
2017-09-19T15:08:19.335Z,47.6
2017-09-19T15:19:20.471Z,46.4
2017-09-19T15:30:18.882Z,46.1
2017-09-19T15:41:18.724Z,44.3
2017-09-19T15:52:19.597Z,43.9
2017-09-19T16:03:18.721Z,46.8
2017-09-19T16:14:21.089Z,47.2
2017-09-19T16:25:18.688Z,47.6
2017-09-19T16:36:19.504Z,47.3
2017-09-19T16:47:18.970Z,47.5
2017-09-19T16:58:19.076Z,47.4
2017-09-19T17:09:19.888Z,47.5
2017-09-19T17:20:19.164Z,47.3
2017-09-19T17:31:19.533Z,46.3
2017-09-19T17:42:19.263Z,46.9
2017-09-19T17:53:19.209Z,47.3
2017-09-19T18:04:22.439Z,47.1
2017-09-19T18:15:18.778Z,47
2017-09-19T18:26:18.573Z,47
2017-09-19T18:37:18.711Z,47.3
2017-09-19T18:48:18.595Z,48
2017-09-19T18:59:19.396Z,48.5
2017-09-19T19:10:19.064Z,48.6
2017-09-19T19:21:19.108Z,49.1
2017-09-19T19:32:18.933Z,49
2017-09-19T19:43:19.112Z,49.2
2017-09-19T19:54:20.656Z,48.6
2017-09-19T20:05:18.626Z,49
2017-09-19T20:16:18.620Z,45.9
2017-09-19T20:27:19.228Z,44.8
2017-09-19T20:38:19.450Z,44
2017-09-19T20:49:18.684Z,43.3
2017-09-19T21:00:19.210Z,41.5
2017-09-19T21:11:19.395Z,40.9
2017-09-19T21:22:19.027Z,40.1
2017-09-19T21:33:18.899Z,40.2
2017-09-19T21:44:18.761Z,42.7
2017-09-19T21:55:18.476Z,43
2017-09-19T22:06:18.769Z,43.3
2017-09-19T22:17:19.155Z,43.1
2017-09-19T22:28:19.427Z,44
2017-09-19T22:39:19.210Z,44.8
2017-09-19T22:50:19.292Z,45
2017-09-19T23:01:19.360Z,45.3
2017-09-19T23:12:19.179Z,45.8
2017-09-19T23:23:19.348Z,46.4
2017-09-19T23:34:18.963Z,46.3
2017-09-19T23:45:18.511Z,46.4
2017-09-19T23:56:19.247Z,46.5
